Time;durP1;ratioP1;P1;durP2;ratioP2;P2;SDS_P1;SDS_P2;PMS_P1;PMS_P2;Temp;Humidity;BMP_temperature;BMP_pressure;BME280_temperature;BME280_humidity;BME280_pressure;Samples;Min_cycle;Max_cycle;Signal;HPM_P1;HPM_P2
2024/03/16 00:00:09;;;;;;;6.38;3.38;;;;;;;;;;2061723;28;20033;-51
2024/03/16 00:01:11;;;;;;;4.82;3.15;;;;;;;;;;2057501;28;20025;-53
2024/03/16 00:02:12;;;;;;;4.80;3.15;;;;;;;;;;2061102;28;20025;-54
2024/03/16 00:03:13;;;;;;;6.85;3.60;;;;;;;;;;2064825;28;20022;-52
2024/03/16 00:04:14;;;;;;;5.28;2.90;;;;;;;;;;2064432;28;20045;-52
2024/03/16 00:05:16;;;;;;;5.72;3.53;;;;;;;;;;2064541;28;20088;-52
2024/03/16 00:06:17;;;;;;;5.32;3.50;;;;;;;;;;2064547;28;20037;-51
2024/03/16 00:07:18;;;;;;;5.72;3.70;;;;;;;;;;2063581;28;20022;-54
2024/03/16 00:08:20;;;;;;;9.20;3.67;;;;;;;;;;2064988;28;20075;-54
2024/03/16 00:09:22;;;;;;;8.25;3.90;;;;;;;;;;2065289;28;20026;-54
2024/03/16 00:10:23;;;;;;;7.40;4.05;;;;;;;;;;2065023;28;20349;-51
2024/03/16 00:11:27;;;;;;;4.82;3.10;;;;;;;;;;2058536;28;20023;-53
2024/03/16 00:12:28;;;;;;;6.32;3.63;;;;;;;;;;2057185;28;20034;-52
2024/03/16 00:13:29;;;;;;;6.82;3.38;;;;;;;;;;2064595;28;20014;-53
2024/03/16 00:14:31;;;;;;;8.00;3.83;;;;;;;;;;2064546;28;20076;-51
2024/03/16 00:15:32;;;;;;;7.07;3.67;;;;;;;;;;2057969;28;20018;-50
2024/03/16 00:16:34;;;;;;;4.53;3.33;;;;;;;;;;2058965;28;20031;-48
2024/03/16 00:17:35;;;;;;;7.88;3.80;;;;;;;;;;2064688;28;20030;-50
2024/03/16 00:18:36;;;;;;;6.90;3.53;;;;;;;;;;2059042;28;20031;-50
2024/03/16 00:19:38;;;;;;;6.80;3.85;;;;;;;;;;2057312;28;20118;-49
2024/03/16 00:20:40;;;;;;;5.72;3.40;;;;;;;;;;2065150;28;20056;-49
2024/03/16 00:21:42;;;;;;;9.55;4.25;;;;;;;;;;2065111;28;20041;-49
2024/03/16 00:22:43;;;;;;;6.85;3.65;;;;;;;;;;2065163;28;20452;-48
2024/03/16 00:23:44;;;;;;;6.57;3.38;;;;;;;;;;2065085;28;20038;-49
2024/03/16 00:24:46;;;;;;;7.97;3.70;;;;;;;;;;2064884;28;20022;-49
2024/03/16 00:25:47;;;;;;;8.38;4.20;;;;;;;;;;2065212;28;20406;-50
2024/03/16 00:26:48;;;;;;;6.00;4.15;;;;;;;;;;2065008;28;20018;-50
2024/03/16 00:27:52;;;;;;;5.72;3.88;;;;;;;;;;2064381;28;20469;-50
2024/03/16 00:28:53;;;;;;;6.38;4.25;;;;;;;;;;2065858;28;20029;-49
2024/03/16 00:29:55;;;;;;;6.78;4.10;;;;;;;;;;2064949;28;20030;-49
2024/03/16 00:30:56;;;;;;;9.43;4.25;;;;;;;;;;2064911;28;20073;-49
2024/03/16 00:31:57;;;;;;;7.30;3.90;;;;;;;;;;2065338;28;20027;-50
2024/03/16 00:32:59;;;;;;;7.47;3.88;;;;;;;;;;2064249;28;20501;-51
2024/03/16 00:34:00;;;;;;;8.40;4.32;;;;;;;;;;2064460;28;20501;-49
2024/03/16 00:35:03;;;;;;;6.68;4.15;;;;;;;;;;2064869;28;20053;-48
2024/03/16 00:36:04;;;;;;;10.20;4.63;;;;;;;;;;2061709;28;20030;-48
2024/03/16 00:37:06;;;;;;;10.05;4.97;;;;;;;;;;2057166;28;20027;-48
2024/03/16 00:38:07;;;;;;;8.60;4.55;;;;;;;;;;2063336;28;20026;-48
2024/03/16 00:39:15;;;;;;;6.70;3.90;;;;;;;;;;2064738;28;20022;-48
2024/03/16 00:40:19;;;;;;;8.70;4.57;;;;;;;;;;2064475;28;20066;-51
2024/03/16 00:41:20;;;;;;;9.90;4.78;;;;;;;;;;2064162;28;20524;-50
2024/03/16 00:42:21;;;;;;;8.13;4.80;;;;;;;;;;2064953;28;20030;-49
2024/03/16 00:43:23;;;;;;;7.20;4.28;;;;;;;;;;2065023;28;20028;-49
2024/03/16 00:44:24;;;;;;;7.93;4.40;;;;;;;;;;2064849;28;20069;-48
2024/03/16 00:45:25;;;;;;;8.48;4.30;;;;;;;;;;2064939;28;20042;-50
2024/03/16 00:46:27;;;;;;;7.35;4.43;;;;;;;;;;2064944;28;20034;-50
2024/03/16 00:47:28;;;;;;;9.85;4.40;;;;;;;;;;2064868;28;20025;-51
2024/03/16 00:48:29;;;;;;;9.55;4.32;;;;;;;;;;2065090;28;20025;-50
2024/03/16 00:49:30;;;;;;;7.55;3.22;;;;;;;;;;2064977;28;20027;-49
2024/03/16 00:50:32;;;;;;;7.10;3.53;;;;;;;;;;2062424;28;20026;-49
2024/03/16 00:51:33;;;;;;;10.90;4.38;;;;;;;;;;2064328;28;20034;-50
2024/03/16 00:52:35;;;;;;;7.75;4.03;;;;;;;;;;2061949;28;20030;-49
2024/03/16 00:53:41;;;;;;;8.55;4.18;;;;;;;;;;2057876;28;20019;-50
2024/03/16 00:54:43;;;;;;;7.28;3.88;;;;;;;;;;2058248;28;20051;-49
2024/03/16 00:55:44;;;;;;;5.90;3.65;;;;;;;;;;2061840;28;20061;-51
2024/03/16 00:56:51;;;;;;;7.55;3.88;;;;;;;;;;2064830;28;20030;-49
2024/03/16 00:57:52;;;;;;;6.72;3.55;;;;;;;;;;2064417;28;20022;-49
2024/03/16 00:58:54;;;;;;;6.88;4.32;;;;;;;;;;2060808;28;20080;-50
2024/03/16 00:59:55;;;;;;;6.00;3.63;;;;;;;;;;2063010;28;20113;-50
2024/03/16 01:00:56;;;;;;;8.02;3.88;;;;;;;;;;2062766;28;20026;-50
2024/03/16 01:01:57;;;;;;;5.55;3.80;;;;;;;;;;2064263;28;20010;-50
2024/03/16 01:02:59;;;;;;;6.00;3.58;;;;;;;;;;2064846;28;20041;-50
2024/03/16 01:04:01;;;;;;;7.90;4.03;;;;;;;;;;2061174;28;20026;-50
2024/03/16 01:05:02;;;;;;;8.63;4.45;;;;;;;;;;2060266;28;20088;-50
2024/03/16 01:06:04;;;;;;;9.98;4.85;;;;;;;;;;2064772;28;20089;-52
2024/03/16 01:07:05;;;;;;;8.77;3.83;;;;;;;;;;2063627;28;20049;-52
2024/03/16 01:08:06;;;;;;;7.72;4.43;;;;;;;;;;2064871;28;20045;-51
2024/03/16 01:09:07;;;;;;;8.75;4.72;;;;;;;;;;2064402;28;20025;-50
2024/03/16 01:10:11;;;;;;;6.82;3.97;;;;;;;;;;2064429;28;20050;-50
2024/03/16 01:11:12;;;;;;;8.80;3.90;;;;;;;;;;2064995;28;20076;-50
2024/03/16 01:12:14;;;;;;;6.55;4.22;;;;;;;;;;2063825;28;20073;-50
2024/03/16 01:13:15;;;;;;;6.28;3.67;;;;;;;;;;2064074;28;20034;-51
2024/03/16 01:14:16;;;;;;;6.80;3.80;;;;;;;;;;2064639;28;20050;-50
2024/03/16 01:15:17;;;;;;;5.90;4.22;;;;;;;;;;2064068;28;20405;-50
2024/03/16 01:16:19;;;;;;;8.05;4.15;;;;;;;;;;2064194;28;20217;-52
2024/03/16 01:17:21;;;;;;;8.52;4.50;;;;;;;;;;2056827;28;20170;-51
2024/03/16 01:18:22;;;;;;;7.25;3.83;;;;;;;;;;2056429;28;20105;-52
2024/03/16 01:19:25;;;;;;;6.13;3.95;;;;;;;;;;2056866;28;20022;-50
2024/03/16 01:20:27;;;;;;;8.07;3.97;;;;;;;;;;2063963;28;20096;-50
2024/03/16 01:21:29;;;;;;;7.13;3.70;;;;;;;;;;2064471;28;20046;-52
2024/03/16 01:22:30;;;;;;;5.45;3.63;;;;;;;;;;2064254;28;20027;-50
2024/03/16 01:23:31;;;;;;;5.57;3.60;;;;;;;;;;2064032;28;20023;-50
2024/03/16 01:24:33;;;;;;;7.78;3.88;;;;;;;;;;2064575;28;20126;-48
2024/03/16 01:25:34;;;;;;;5.35;3.13;;;;;;;;;;2064815;28;20037;-48
2024/03/16 01:26:35;;;;;;;6.85;3.83;;;;;;;;;;2064393;28;20018;-48
2024/03/16 01:27:36;;;;;;;6.90;3.30;;;;;;;;;;2059627;28;20363;-48
2024/03/16 01:28:38;;;;;;;6.57;3.63;;;;;;;;;;2064791;28;20038;-49
2024/03/16 01:29:39;;;;;;;7.43;3.47;;;;;;;;;;2064636;28;20096;-48
2024/03/16 01:30:40;;;;;;;7.22;3.22;;;;;;;;;;2064683;28;20098;-49
2024/03/16 01:31:42;;;;;;;5.50;3.38;;;;;;;;;;2057476;28;20521;-49
2024/03/16 01:32:43;;;;;;;6.32;4.00;;;;;;;;;;2058693;28;20066;-49
2024/03/16 01:33:44;;;;;;;5.90;3.42;;;;;;;;;;2064782;28;20018;-47
2024/03/16 01:34:46;;;;;;;6.20;3.42;;;;;;;;;;2064565;28;20050;-48
2024/03/16 01:35:48;;;;;;;6.40;3.17;;;;;;;;;;2063851;28;20098;-48
2024/03/16 01:36:49;;;;;;;7.05;3.30;;;;;;;;;;2064097;28;20022;-49
2024/03/16 01:37:51;;;;;;;4.57;3.17;;;;;;;;;;2060341;28;20099;-48
2024/03/16 01:38:52;;;;;;;5.45;2.47;;;;;;;;;;2056053;28;20090;-49
2024/03/16 01:39:55;;;;;;;7.38;3.15;;;;;;;;;;2063868;28;20014;-48
2024/03/16 01:40:56;;;;;;;5.47;3.45;;;;;;;;;;2064446;28;20404;-49
2024/03/16 01:41:58;;;;;;;6.30;3.70;;;;;;;;;;2064716;28;20108;-48
2024/03/16 01:42:59;;;;;;;5.00;3.30;;;;;;;;;;2064156;28;20110;-47
2024/03/16 01:44:13;;;;;;;7.93;3.88;;;;;;;;;;2064389;28;20102;-49
2024/03/16 01:45:15;;;;;;;6.20;3.50;;;;;;;;;;2064647;28;20188;-47
2024/03/16 01:46:16;;;;;;;4.82;3.13;;;;;;;;;;2063988;28;20022;-47
2024/03/16 01:47:17;;;;;;;6.13;3.13;;;;;;;;;;2064469;28;20076;-49
2024/03/16 01:48:19;;;;;;;5.63;3.60;;;;;;;;;;2057073;28;20105;-49
2024/03/16 01:49:21;;;;;;;4.95;2.88;;;;;;;;;;2061609;28;20026;-48
2024/03/16 01:50:22;;;;;;;5.38;3.20;;;;;;;;;;2064314;28;20026;-48
2024/03/16 01:51:25;;;;;;;3.90;3.00;;;;;;;;;;2064068;28;20015;-47
2024/03/16 01:52:26;;;;;;;6.32;3.00;;;;;;;;;;2059227;28;20022;-48
2024/03/16 01:53:27;;;;;;;6.25;3.40;;;;;;;;;;2056715;28;20094;-47
2024/03/16 01:54:30;;;;;;;4.57;2.72;;;;;;;;;;2064221;28;20018;-48
2024/03/16 01:55:32;;;;;;;4.90;3.17;;;;;;;;;;2062912;28;20035;-49
2024/03/16 01:56:34;;;;;;;4.32;2.63;;;;;;;;;;2058829;28;20015;-49
2024/03/16 01:57:37;;;;;;;3.65;2.65;;;;;;;;;;2061487;28;20027;-49
2024/03/16 01:58:43;;;;;;;3.95;3.10;;;;;;;;;;2061123;28;20433;-48
2024/03/16 01:59:44;;;;;;;6.65;3.20;;;;;;;;;;2064691;28;20425;-48
2024/03/16 02:00:47;;;;;;;5.72;2.70;;;;;;;;;;2063678;28;20050;-49
2024/03/16 02:01:48;;;;;;;4.72;2.63;;;;;;;;;;2062077;28;20468;-48
2024/03/16 02:02:49;;;;;;;5.50;2.67;;;;;;;;;;2064750;28;20489;-48
2024/03/16 02:03:51;;;;;;;5.00;2.85;;;;;;;;;;2060243;28;20035;-48
2024/03/16 02:04:52;;;;;;;3.67;2.47;;;;;;;;;;2057368;28;20031;-48
2024/03/16 02:05:53;;;;;;;5.35;3.13;;;;;;;;;;2057100;28;20041;-47
2024/03/16 02:06:55;;;;;;;5.30;2.85;;;;;;;;;;2059567;28;20015;-49
2024/03/16 02:07:56;;;;;;;4.10;2.80;;;;;;;;;;2063883;28;20420;-48
2024/03/16 02:09:00;;;;;;;4.32;2.90;;;;;;;;;;2062057;28;20018;-47
2024/03/16 02:10:05;;;;;;;7.57;3.05;;;;;;;;;;2063686;28;20062;-49
2024/03/16 02:11:06;;;;;;;6.45;2.72;;;;;;;;;;2063833;28;20026;-48
2024/03/16 02:12:12;;;;;;;4.38;2.45;;;;;;;;;;2059032;28;20022;-48
2024/03/16 02:13:14;;;;;;;4.18;3.08;;;;;;;;;;2062503;28;20025;-48
2024/03/16 02:14:15;;;;;;;4.55;3.00;;;;;;;;;;2061831;28;20068;-48
2024/03/16 02:15:16;;;;;;;4.53;2.85;;;;;;;;;;2058221;28;20030;-48
2024/03/16 02:16:18;;;;;;;4.80;3.05;;;;;;;;;;2056598;28;20023;-48
2024/03/16 02:17:20;;;;;;;6.55;3.33;;;;;;;;;;2063234;28;20050;-47
2024/03/16 02:18:21;;;;;;;5.60;3.08;;;;;;;;;;2064625;28;20049;-47
2024/03/16 02:19:24;;;;;;;3.42;2.70;;;;;;;;;;2064700;28;20043;-48
2024/03/16 02:20:26;;;;;;;4.68;2.78;;;;;;;;;;2064666;28;20018;-48
2024/03/16 02:21:28;;;;;;;5.93;3.28;;;;;;;;;;2063883;28;20093;-48
2024/03/16 02:22:30;;;;;;;5.30;2.85;;;;;;;;;;2064399;28;20025;-49
2024/03/16 02:23:31;;;;;;;5.13;3.33;;;;;;;;;;2060567;28;20026;-48
2024/03/16 02:24:33;;;;;;;5.47;3.15;;;;;;;;;;2060491;28;20030;-47
2024/03/16 02:25:35;;;;;;;6.22;3.47;;;;;;;;;;2057703;28;20066;-48
2024/03/16 02:26:37;;;;;;;4.25;2.70;;;;;;;;;;2065738;28;20026;-48
2024/03/16 02:27:38;;;;;;;7.85;3.40;;;;;;;;;;2066218;28;20021;-48
2024/03/16 02:28:39;;;;;;;5.57;3.20;;;;;;;;;;2066250;28;20359;-48
2024/03/16 02:29:41;;;;;;;4.50;3.20;;;;;;;;;;2065335;28;20018;-48
2024/03/16 02:30:43;;;;;;;4.63;3.10;;;;;;;;;;2065754;28;20022;-48
2024/03/16 02:31:44;;;;;;;6.07;3.10;;;;;;;;;;2059042;28;20077;-48
2024/03/16 02:32:46;;;;;;;6.13;3.50;;;;;;;;;;2060081;28;20026;-48
2024/03/16 02:33:47;;;;;;;5.50;2.97;;;;;;;;;;2065917;28;20022;-48
2024/03/16 02:34:48;;;;;;;6.30;3.33;;;;;;;;;;2064643;28;20018;-49
2024/03/16 02:35:50;;;;;;;5.07;3.13;;;;;;;;;;2065998;28;20015;-48
2024/03/16 02:36:51;;;;;;;5.63;2.88;;;;;;;;;;2066363;28;20027;-49
2024/03/16 02:37:52;;;;;;;4.65;3.17;;;;;;;;;;2062555;28;20026;-46
2024/03/16 02:38:53;;;;;;;3.58;2.75;;;;;;;;;;2057678;28;20063;-47
2024/03/16 02:39:55;;;;;;;6.22;3.00;;;;;;;;;;2057863;28;20386;-48
2024/03/16 02:40:56;;;;;;;5.30;3.00;;;;;;;;;;2060630;28;20121;-47
2024/03/16 02:41:58;;;;;;;4.97;2.95;;;;;;;;;;2066433;28;20026;-48
2024/03/16 02:43:00;;;;;;;5.00;3.65;;;;;;;;;;2065577;28;20201;-48
2024/03/16 02:44:01;;;;;;;5.72;3.13;;;;;;;;;;2059492;28;20026;-47
2024/03/16 02:45:03;;;;;;;5.15;3.17;;;;;;;;;;2063644;28;20035;-47
2024/03/16 02:46:05;;;;;;;5.78;3.63;;;;;;;;;;2057943;28;20023;-47
2024/03/16 02:47:06;;;;;;;4.20;3.17;;;;;;;;;;2063254;28;20088;-48
2024/03/16 02:48:09;;;;;;;5.18;3.25;;;;;;;;;;2066232;28;20023;-48
2024/03/16 02:49:10;;;;;;;5.22;2.90;;;;;;;;;;2065915;28;20615;-49
2024/03/16 02:50:12;;;;;;;5.00;3.05;;;;;;;;;;2065946;28;20581;-49
2024/03/16 02:51:14;;;;;;;5.18;3.50;;;;;;;;;;2066029;28;20080;-48
2024/03/16 02:52:15;;;;;;;5.60;3.42;;;;;;;;;;2066233;28;20019;-48
2024/03/16 02:53:16;;;;;;;5.13;3.28;;;;;;;;;;2065897;28;20421;-48
2024/03/16 02:54:18;;;;;;;4.55;2.95;;;;;;;;;;2064302;28;20448;-48
2024/03/16 02:55:19;;;;;;;4.97;3.30;;;;;;;;;;2064846;28;20045;-49
2024/03/16 02:56:21;;;;;;;4.68;3.50;;;;;;;;;;2063453;28;20029;-48
2024/03/16 02:57:24;;;;;;;7.38;3.45;;;;;;;;;;2057456;28;20025;-49
2024/03/16 02:58:25;;;;;;;3.28;2.78;;;;;;;;;;2061392;28;20053;-48
2024/03/16 02:59:29;;;;;;;6.15;3.05;;;;;;;;;;2065915;28;20042;-48
2024/03/16 03:00:30;;;;;;;4.45;3.45;;;;;;;;;;2065807;28;20035;-48
2024/03/16 03:01:32;;;;;;;4.97;3.38;;;;;;;;;;2064972;28;20021;-48
2024/03/16 03:02:33;;;;;;;5.82;3.45;;;;;;;;;;2065184;28;20023;-53
2024/03/16 03:03:35;;;;;;;7.00;3.40;;;;;;;;;;2065857;28;20129;-52
2024/03/16 03:04:36;;;;;;;4.95;3.20;;;;;;;;;;2065927;28;20097;-52
2024/03/16 03:05:37;;;;;;;4.70;3.10;;;;;;;;;;2064123;28;20022;-52
2024/03/16 03:06:38;;;;;;;3.75;3.10;;;;;;;;;;2065337;28;20021;-53
2024/03/16 03:07:40;;;;;;;4.65;3.03;;;;;;;;;;2065226;28;20595;-53
2024/03/16 03:08:43;;;;;;;4.45;3.30;;;;;;;;;;2065392;28;20049;-52
2024/03/16 03:09:46;;;;;;;6.13;3.45;;;;;;;;;;2058072;28;20054;-51
2024/03/16 03:10:47;;;;;;;4.25;3.20;;;;;;;;;;2065455;28;20342;-52
2024/03/16 03:11:49;;;;;;;7.32;3.03;;;;;;;;;;2065304;28;20400;-54
2024/03/16 03:12:50;;;;;;;4.15;2.83;;;;;;;;;;2064981;28;20413;-51
2024/03/16 03:13:51;;;;;;;4.05;3.10;;;;;;;;;;2065724;28;20018;-53
2024/03/16 03:14:53;;;;;;;4.75;3.33;;;;;;;;;;2065111;28;20018;-53
2024/03/16 03:15:54;;;;;;;4.20;2.80;;;;;;;;;;2065492;28;20026;-54
2024/03/16 03:16:55;;;;;;;5.18;3.38;;;;;;;;;;2065630;28;20021;-52
2024/03/16 03:17:56;;;;;;;5.88;3.55;;;;;;;;;;2066065;28;20430;-52
2024/03/16 03:18:58;;;;;;;5.07;3.38;;;;;;;;;;2065193;28;20018;-50
2024/03/16 03:19:59;;;;;;;4.28;2.90;;;;;;;;;;2065306;28;20065;-53
2024/03/16 03:21:00;;;;;;;5.25;3.67;;;;;;;;;;2063823;28;20019;-55
2024/03/16 03:22:02;;;;;;;5.03;3.40;;;;;;;;;;2057705;28;20124;-53
2024/03/16 03:23:05;;;;;;;5.65;3.40;;;;;;;;;;2064783;28;20110;-54
2024/03/16 03:24:07;;;;;;;4.45;3.30;;;;;;;;;;2065726;28;20018;-54
2024/03/16 03:25:09;;;;;;;5.82;3.25;;;;;;;;;;2063472;28;20046;-51
2024/03/16 03:26:11;;;;;;;5.45;3.05;;;;;;;;;;2063797;28;20034;-53
2024/03/16 03:27:12;;;;;;;6.53;3.28;;;;;;;;;;2065724;28;20117;-52
2024/03/16 03:28:15;;;;;;;7.15;3.30;;;;;;;;;;2065963;28;20011;-51
2024/03/16 03:29:16;;;;;;;4.43;2.97;;;;;;;;;;2065123;28;20460;-53
2024/03/16 03:30:18;;;;;;;3.90;3.13;;;;;;;;;;2064892;28;20065;-54
2024/03/16 03:31:19;;;;;;;4.47;2.63;;;;;;;;;;2065764;28;20030;-53
2024/03/16 03:32:20;;;;;;;6.38;3.30;;;;;;;;;;2065416;28;20034;-54
2024/03/16 03:33:22;;;;;;;6.32;3.38;;;;;;;;;;2065856;28;20106;-53
2024/03/16 03:34:24;;;;;;;4.75;3.00;;;;;;;;;;2064844;28;20009;-53
2024/03/16 03:35:25;;;;;;;4.60;3.10;;;;;;;;;;2063653;28;20042;-52
2024/03/16 03:36:26;;;;;;;4.38;3.35;;;;;;;;;;2061716;28;20023;-53
2024/03/16 03:37:27;;;;;;;7.93;3.05;;;;;;;;;;2063366;28;20081;-52
2024/03/16 03:38:30;;;;;;;4.40;3.20;;;;;;;;;;2065150;28;20045;-50
2024/03/16 03:39:31;;;;;;;4.45;2.85;;;;;;;;;;2062435;28;20114;-52
2024/03/16 03:40:32;;;;;;;5.20;2.85;;;;;;;;;;2062246;28;20056;-52
2024/03/16 03:41:33;;;;;;;4.43;3.25;;;;;;;;;;2065719;28;20022;-51
2024/03/16 03:42:39;;;;;;;5.03;2.80;;;;;;;;;;2065797;28;20421;-53
2024/03/16 03:43:46;;;;;;;3.78;2.88;;;;;;;;;;2060883;28;20417;-51
2024/03/16 03:45:00;;;;;;;4.15;2.92;;;;;;;;;;2057142;28;20031;-52
2024/03/16 03:46:01;;;;;;;4.25;2.55;;;;;;;;;;2057691;28;20401;-52
2024/03/16 03:47:03;;;;;;;4.28;2.85;;;;;;;;;;2062745;28;20014;-53
2024/03/16 03:48:24;;;;;;;5.22;2.90;;;;;;;;;;2065318;28;20022;-53
2024/03/16 03:49:26;;;;;;;5.35;2.95;;;;;;;;;;2065681;28;20019;-59
2024/03/16 03:50:29;;;;;;;3.50;2.58;;;;;;;;;;2064351;28;20027;-52
2024/03/16 03:51:30;;;;;;;3.92;2.75;;;;;;;;;;2065127;28;20034;-52
2024/03/16 03:52:32;;;;;;;5.45;3.67;;;;;;;;;;2065423;28;20022;-53
2024/03/16 03:53:33;;;;;;;4.32;3.10;;;;;;;;;;2064975;28;20068;-53
2024/03/16 03:54:35;;;;;;;5.93;2.97;;;;;;;;;;2064692;28;20105;-55
2024/03/16 03:55:36;;;;;;;4.05;2.42;;;;;;;;;;2064795;28;20022;-52
2024/03/16 03:56:37;;;;;;;4.57;2.70;;;;;;;;;;2065043;28;20081;-53
2024/03/16 03:57:40;;;;;;;4.40;2.75;;;;;;;;;;2065702;28;20019;-54
2024/03/16 03:58:41;;;;;;;4.93;2.80;;;;;;;;;;2057769;28;20050;-50
2024/03/16 03:59:43;;;;;;;3.75;2.47;;;;;;;;;;2059536;28;20041;-52
2024/03/16 04:00:45;;;;;;;5.10;3.00;;;;;;;;;;2064025;28;20023;-55
2024/03/16 04:01:46;;;;;;;3.85;2.38;;;;;;;;;;2065109;28;20080;-52
2024/03/16 04:02:48;;;;;;;4.22;3.13;;;;;;;;;;2065391;28;20033;-54
2024/03/16 04:03:49;;;;;;;8.45;2.47;;;;;;;;;;2065328;28;20077;-55
2024/03/16 04:04:50;;;;;;;4.60;2.55;;;;;;;;;;2065266;28;20036;-50
2024/03/16 04:05:53;;;;;;;3.60;2.47;;;;;;;;;;2065181;28;20030;-50
2024/03/16 04:06:54;;;;;;;3.15;2.33;;;;;;;;;;2057149;28;20112;-53
2024/03/16 04:07:56;;;;;;;3.20;2.55;;;;;;;;;;2060454;28;20028;-54
2024/03/16 04:08:57;;;;;;;4.38;2.50;;;;;;;;;;2065225;28;20026;-54
2024/03/16 04:10:02;;;;;;;3.75;2.33;;;;;;;;;;2063259;28;20015;-53
2024/03/16 04:11:04;;;;;;;5.68;2.70;;;;;;;;;;2061145;28;20405;-53
2024/03/16 04:12:06;;;;;;;3.50;2.33;;;;;;;;;;2064453;28;20029;-53
2024/03/16 04:13:07;;;;;;;4.10;2.30;;;;;;;;;;2058324;28;20019;-53
2024/03/16 04:14:08;;;;;;;3.53;2.55;;;;;;;;;;2058208;28;20033;-54
2024/03/16 04:15:10;;;;;;;3.85;2.55;;;;;;;;;;2064950;28;20026;-54
2024/03/16 04:16:14;;;;;;;4.20;2.60;;;;;;;;;;2064417;28;20543;-50
2024/03/16 04:17:15;;;;;;;3.85;2.17;;;;;;;;;;2064260;28;20157;-54
2024/03/16 04:18:16;;;;;;;5.78;2.40;;;;;;;;;;2065067;28;20014;-54
2024/03/16 04:19:18;;;;;;;3.80;2.85;;;;;;;;;;2061378;28;20030;-52
2024/03/16 04:20:19;;;;;;;4.88;2.97;;;;;;;;;;2056850;28;20029;-53
2024/03/16 04:21:20;;;;;;;3.58;2.30;;;;;;;;;;2063374;28;20493;-54
2024/03/16 04:22:22;;;;;;;3.58;2.85;;;;;;;;;;2056129;28;20209;-50
2024/03/16 04:23:23;;;;;;;4.75;2.83;;;;;;;;;;2056719;28;20022;-52
2024/03/16 04:24:24;;;;;;;4.32;2.65;;;;;;;;;;2064805;28;20030;-55
2024/03/16 04:25:26;;;;;;;4.47;2.97;;;;;;;;;;2064506;28;20022;-53
2024/03/16 04:26:27;;;;;;;6.15;3.15;;;;;;;;;;2057029;28;20018;-53
2024/03/16 04:27:28;;;;;;;4.03;2.97;;;;;;;;;;2061071;28;20010;-53
2024/03/16 04:28:29;;;;;;;3.53;2.53;;;;;;;;;;2065240;28;20022;-53
2024/03/16 04:29:31;;;;;;;4.35;3.35;;;;;;;;;;2065018;28;20110;-51
2024/03/16 04:30:32;;;;;;;4.93;2.67;;;;;;;;;;2064289;28;20184;-48
2024/03/16 04:31:34;;;;;;;4.13;2.80;;;;;;;;;;2064596;28;20019;-49
2024/03/16 04:32:36;;;;;;;4.90;3.10;;;;;;;;;;2063785;28;20026;-49
2024/03/16 04:33:37;;;;;;;4.28;3.03;;;;;;;;;;2062805;28;20406;-49
2024/03/16 04:34:39;;;;;;;4.70;2.83;;;;;;;;;;2065118;28;20026;-49
2024/03/16 04:35:40;;;;;;;5.43;3.20;;;;;;;;;;2064933;28;20007;-50
2024/03/16 04:36:41;;;;;;;4.53;2.83;;;;;;;;;;2064831;28;20447;-49
2024/03/16 04:37:42;;;;;;;3.80;3.13;;;;;;;;;;2064985;28;20036;-48
2024/03/16 04:38:44;;;;;;;4.18;3.00;;;;;;;;;;2064998;28;20145;-50
2024/03/16 04:39:45;;;;;;;6.43;3.30;;;;;;;;;;2065111;28;20477;-50
2024/03/16 04:40:48;;;;;;;5.22;3.10;;;;;;;;;;2064718;28;20010;-50
2024/03/16 04:41:50;;;;;;;4.32;3.30;;;;;;;;;;2064580;28;20149;-51
2024/03/16 04:42:52;;;;;;;6.32;3.38;;;;;;;;;;2065089;28;20034;-50
2024/03/16 04:43:53;;;;;;;5.90;3.35;;;;;;;;;;2064626;28;20026;-48
2024/03/16 04:44:54;;;;;;;3.47;2.78;;;;;;;;;;2064998;28;20093;-50
2024/03/16 04:45:55;;;;;;;4.82;3.25;;;;;;;;;;2064062;28;20029;-51
2024/03/16 04:46:57;;;;;;;3.92;2.92;;;;;;;;;;2056188;28;20018;-51
2024/03/16 04:47:58;;;;;;;5.78;3.08;;;;;;;;;;2056520;28;20065;-52
2024/03/16 04:49:00;;;;;;;4.18;2.95;;;;;;;;;;2057839;28;20435;-50
2024/03/16 04:50:01;;;;;;;4.07;2.85;;;;;;;;;;2059476;28;20486;-52
2024/03/16 04:51:02;;;;;;;4.18;3.20;;;;;;;;;;2064474;28;20011;-51
2024/03/16 04:52:04;;;;;;;4.50;3.25;;;;;;;;;;2064157;28;20069;-49
2024/03/16 04:53:05;;;;;;;6.00;3.10;;;;;;;;;;2063952;28;20034;-49
2024/03/16 04:54:06;;;;;;;4.35;3.13;;;;;;;;;;2064065;28;20050;-50
2024/03/16 04:55:08;;;;;;;4.30;3.10;;;;;;;;;;2064042;28;20022;-51
2024/03/16 04:56:09;;;;;;;4.90;3.00;;;;;;;;;;2065002;28;20006;-49
2024/03/16 04:57:10;;;;;;;4.78;3.28;;;;;;;;;;2057482;28;20397;-50
2024/03/16 04:58:12;;;;;;;4.47;3.33;;;;;;;;;;2061083;28;20057;-51
2024/03/16 04:59:13;;;;;;;5.53;3.47;;;;;;;;;;2056358;28;20473;-52
2024/03/16 05:00:15;;;;;;;5.28;3.40;;;;;;;;;;2063034;28;20019;-49
2024/03/16 05:01:16;;;;;;;5.68;3.72;;;;;;;;;;2064862;28;20019;-50
2024/03/16 05:02:17;;;;;;;5.80;3.10;;;;;;;;;;2057657;28;20502;-50
2024/03/16 05:03:19;;;;;;;4.82;3.63;;;;;;;;;;2063255;28;20030;-50
2024/03/16 05:04:20;;;;;;;4.40;3.35;;;;;;;;;;2059101;28;20029;-52
2024/03/16 05:05:22;;;;;;;6.00;3.50;;;;;;;;;;2064912;28;20076;-50
2024/03/16 05:06:23;;;;;;;6.43;3.53;;;;;;;;;;2064591;28;20497;-50
2024/03/16 05:07:25;;;;;;;8.52;4.25;;;;;;;;;;2064734;28;20519;-49
2024/03/16 05:08:26;;;;;;;5.90;3.83;;;;;;;;;;2060675;28;20023;-50
2024/03/16 05:09:28;;;;;;;5.13;3.28;;;;;;;;;;2060885;28;20018;-50
2024/03/16 05:10:29;;;;;;;4.50;3.22;;;;;;;;;;2064223;28;20088;-51
2024/03/16 05:11:30;;;;;;;5.72;3.50;;;;;;;;;;2064312;28;20030;-49
2024/03/16 05:12:32;;;;;;;5.20;3.00;;;;;;;;;;2063142;28;20027;-48
2024/03/16 05:13:33;;;;;;;5.85;3.60;;;;;;;;;;2063320;28;20015;-50
2024/03/16 05:14:35;;;;;;;6.93;4.00;;;;;;;;;;2064812;28;20029;-46
2024/03/16 05:15:36;;;;;;;5.50;3.20;;;;;;;;;;2064687;28;20548;-49
2024/03/16 05:16:39;;;;;;;4.82;3.40;;;;;;;;;;2059834;28;20025;-50
2024/03/16 05:17:41;;;;;;;5.88;3.58;;;;;;;;;;2061550;28;20026;-50
2024/03/16 05:18:42;;;;;;;5.30;3.25;;;;;;;;;;2064792;28;20024;-48
2024/03/16 05:19:44;;;;;;;5.55;3.45;;;;;;;;;;2064723;28;20033;-50
2024/03/16 05:20:46;;;;;;;5.22;3.25;;;;;;;;;;2064243;28;20026;-48
2024/03/16 05:21:47;;;;;;;5.03;3.33;;;;;;;;;;2056866;28;20050;-50
2024/03/16 05:22:49;;;;;;;5.00;3.63;;;;;;;;;;2058901;28;20061;-49
2024/03/16 05:23:50;;;;;;;7.25;3.42;;;;;;;;;;2063903;28;20688;-49
2024/03/16 05:24:51;;;;;;;5.43;3.55;;;;;;;;;;2064224;28;20034;-49
2024/03/16 05:25:53;;;;;;;5.72;3.47;;;;;;;;;;2064556;28;20374;-50
2024/03/16 05:26:54;;;;;;;4.72;3.63;;;;;;;;;;2064847;28;20105;-49
2024/03/16 05:27:56;;;;;;;5.72;3.35;;;;;;;;;;2064451;28;20321;-51
2024/03/16 05:28:57;;;;;;;5.32;3.80;;;;;;;;;;2061191;28;20109;-49
2024/03/16 05:29:59;;;;;;;4.85;3.20;;;;;;;;;;2056300;28;20027;-50
2024/03/16 05:31:00;;;;;;;6.57;3.67;;;;;;;;;;2063138;28;20026;-50
2024/03/16 05:32:03;;;;;;;6.50;3.80;;;;;;;;;;2064057;28;20030;-49
2024/03/16 05:33:04;;;;;;;5.60;3.60;;;;;;;;;;2063869;28;20023;-50
2024/03/16 05:34:05;;;;;;;5.53;3.55;;;;;;;;;;2064340;28;20029;-50
2024/03/16 05:35:08;;;;;;;7.50;3.92;;;;;;;;;;2064412;28;20393;-49
2024/03/16 05:36:12;;;;;;;6.93;3.83;;;;;;;;;;2064786;28;20077;-50
2024/03/16 05:37:13;;;;;;;5.93;3.80;;;;;;;;;;2064564;28;20113;-50
2024/03/16 05:38:15;;;;;;;5.88;3.92;;;;;;;;;;2064638;28;20516;-50
2024/03/16 05:39:17;;;;;;;5.75;3.72;;;;;;;;;;2064290;28;20503;-49
2024/03/16 05:40:18;;;;;;;7.63;4.32;;;;;;;;;;2063915;28;20444;-50
2024/03/16 05:41:20;;;;;;;4.53;3.53;;;;;;;;;;2064103;28;20445;-50
2024/03/16 05:42:21;;;;;;;7.47;4.28;;;;;;;;;;2064468;28;20382;-50
2024/03/16 05:43:22;;;;;;;6.75;4.32;;;;;;;;;;2058734;28;20027;-51
2024/03/16 05:44:24;;;;;;;7.75;5.07;;;;;;;;;;2056604;28;20134;-50
2024/03/16 05:45:25;;;;;;;5.60;4.22;;;;;;;;;;2060829;28;20054;-50
2024/03/16 05:46:27;;;;;;;5.40;3.88;;;;;;;;;;2064030;28;20037;-50
2024/03/16 05:47:28;;;;;;;6.40;3.72;;;;;;;;;;2056204;28;20666;-51
2024/03/16 05:48:29;;;;;;;6.43;3.95;;;;;;;;;;2067290;28;20014;-49
2024/03/16 05:49:31;;;;;;;7.30;4.47;;;;;;;;;;2056658;28;20451;-49
2024/03/16 05:50:32;;;;;;;7.20;3.88;;;;;;;;;;2063276;28;20089;-51
2024/03/16 05:51:33;;;;;;;9.02;4.25;;;;;;;;;;2064409;28;20041;-51
2024/03/16 05:52:35;;;;;;;7.57;4.10;;;;;;;;;;2064698;28;20025;-51
2024/03/16 05:53:36;;;;;;;7.70;4.82;;;;;;;;;;2063767;28;20025;-49
2024/03/16 05:54:38;;;;;;;6.40;4.30;;;;;;;;;;2063890;28;20522;-49
2024/03/16 05:55:39;;;;;;;6.13;4.20;;;;;;;;;;2064099;28;20031;-51
2024/03/16 05:56:40;;;;;;;5.43;3.97;;;;;;;;;;2064413;28;20404;-50
2024/03/16 05:57:42;;;;;;;5.03;3.60;;;;;;;;;;2064537;28;20061;-50
2024/03/16 05:58:43;;;;;;;5.32;4.10;;;;;;;;;;2057102;28;20102;-51
2024/03/16 05:59:45;;;;;;;6.57;4.13;;;;;;;;;;2055730;28;20077;-51
2024/03/16 06:00:46;;;;;;;6.55;4.05;;;;;;;;;;2056139;28;20021;-49
2024/03/16 06:01:47;;;;;;;6.93;4.00;;;;;;;;;;2062373;28;20027;-49
2024/03/16 06:02:49;;;;;;;5.78;4.20;;;;;;;;;;2063160;28;20026;-48
2024/03/16 06:03:51;;;;;;;7.10;4.70;;;;;;;;;;2059817;28;20357;-49
2024/03/16 06:04:52;;;;;;;6.20;4.00;;;;;;;;;;2060624;28;20110;-51
2024/03/16 06:05:54;;;;;;;9.00;4.53;;;;;;;;;;2063969;28;20028;-49
2024/03/16 06:06:56;;;;;;;6.60;4.28;;;;;;;;;;2056532;28;20030;-51
2024/03/16 06:07:57;;;;;;;7.85;4.90;;;;;;;;;;2059906;28;20350;-50
2024/03/16 06:08:58;;;;;;;9.02;5.20;;;;;;;;;;2063819;28;20434;-49
2024/03/16 06:10:00;;;;;;;8.13;4.28;;;;;;;;;;2055653;28;20030;-49